createdAt,value
2018-04-18T00:01:34.230Z,38.20
2018-04-18T00:04:00.544Z,36.43
2018-04-18T00:06:27.599Z,36.83
2018-04-18T00:08:53.899Z,38.50
2018-04-18T00:11:20.308Z,38.43
2018-04-18T00:13:46.570Z,36.70
2018-04-18T00:16:12.952Z,41.80
2018-04-18T00:18:39.218Z,38.37
2018-04-18T00:21:05.658Z,37.57
2018-04-18T00:23:31.937Z,38.47
2018-04-18T00:25:58.295Z,39.10
2018-04-18T00:28:24.623Z,38.70
2018-04-18T00:30:51.670Z,38.87
2018-04-18T00:33:17.958Z,39.10
2018-04-18T00:35:45.081Z,40.97
2018-04-18T00:38:11.376Z,40.63
2018-04-18T00:40:37.678Z,38.33
2018-04-18T00:43:03.992Z,45.53
2018-04-18T00:45:31.029Z,43.93
2018-04-18T00:47:57.345Z,40.20
2018-04-18T00:50:23.643Z,40.70
2018-04-18T00:52:49.943Z,43.47
2018-04-18T00:55:16.983Z,43.10
2018-04-18T00:57:43.994Z,41.10
2018-04-18T01:00:10.719Z,38.90
2018-04-18T01:02:37.038Z,44.40
2018-04-18T01:05:03.308Z,41.33
2018-04-18T01:07:29.600Z,42.10
2018-04-18T01:09:55.881Z,40.63
2018-04-18T01:12:22.203Z,39.10
2018-04-18T01:14:48.563Z,39.80
2018-04-18T01:17:15.959Z,38.80
2018-04-18T01:19:42.252Z,40.70
2018-04-18T01:22:08.579Z,38.50
2018-04-18T01:24:35.605Z,39.47
2018-04-18T01:27:01.935Z,39.80
2018-04-18T01:29:29.086Z,42.10
2018-04-18T01:31:55.452Z,41.97
2018-04-18T01:34:21.769Z,40.70
2018-04-18T01:36:48.801Z,39.80
2018-04-18T01:39:15.886Z,42.87
2018-04-18T01:41:42.238Z,39.80
2018-04-18T01:44:08.551Z,40.50
2018-04-18T01:46:34.823Z,43.40
2018-04-18T01:49:19.673Z,41.90
2018-04-18T01:51:46.000Z,39.70
2018-04-18T01:54:12.321Z,39.37
2018-04-18T01:56:38.645Z,35.93
2018-04-18T01:59:04.916Z,37.93
2018-04-18T02:01:31.173Z,37.03
2018-04-18T02:03:58.173Z,36.77
2018-04-18T02:06:24.475Z,37.50
2018-04-18T02:08:50.793Z,36.30
2018-04-18T02:11:17.099Z,35.47
2018-04-18T02:13:43.403Z,34.13
2018-04-18T02:16:09.738Z,34.37
2018-04-18T02:18:36.366Z,32.70
2018-04-18T02:21:02.691Z,33.00
2018-04-18T02:23:28.988Z,37.57
2018-04-18T02:25:55.322Z,33.93
2018-04-18T02:28:21.607Z,34.77
2018-04-18T02:30:47.908Z,35.60
2018-04-18T02:33:14.196Z,33.67
2018-04-18T02:35:40.534Z,31.60
2018-04-18T02:38:06.904Z,33.07
2018-04-18T02:40:33.188Z,31.27
2018-04-18T02:43:00.185Z,33.60
2018-04-18T02:45:26.448Z,33.37
2018-04-18T02:47:52.738Z,31.37
2018-04-18T02:50:19.065Z,34.60
2018-04-18T02:52:45.354Z,31.20
2018-04-18T02:55:11.639Z,33.83
2018-04-18T02:57:37.957Z,33.10
2018-04-18T03:00:04.258Z,32.03
2018-04-18T03:02:31.954Z,30.00
2018-04-18T03:04:58.253Z,28.67
2018-04-18T03:07:24.590Z,27.90
2018-04-18T03:09:50.876Z,27.80
2018-04-18T03:12:17.223Z,28.37
2018-04-18T03:14:44.323Z,27.03
2018-04-18T03:17:10.621Z,27.30
2018-04-18T03:19:37.089Z,27.33
2018-04-18T03:22:03.432Z,28.80
2018-04-18T03:24:29.759Z,29.73
2018-04-18T03:26:56.070Z,28.90
2018-04-18T03:29:22.376Z,28.80
2018-04-18T03:31:48.650Z,28.80
2018-04-18T03:34:14.945Z,26.33
2018-04-18T03:36:41.293Z,26.57
2018-04-18T03:39:07.560Z,29.53
2018-04-18T03:41:33.828Z,28.23
2018-04-18T03:44:00.904Z,25.87
2018-04-18T03:46:27.152Z,29.07
2018-04-18T03:48:53.485Z,28.97
2018-04-18T03:51:19.811Z,28.60
2018-04-18T03:53:46.168Z,29.97
2018-04-18T03:56:12.488Z,29.83
2018-04-18T03:58:38.902Z,27.70
2018-04-18T04:01:05.201Z,27.00
2018-04-18T04:03:31.485Z,25.87
2018-04-18T04:05:57.782Z,25.80
2018-04-18T04:08:24.144Z,24.60
2018-04-18T04:10:50.421Z,25.83
2018-04-18T04:13:17.541Z,28.00
2018-04-18T04:15:44.561Z,27.17
2018-04-18T04:18:29.621Z,25.30
2018-04-18T04:21:14.448Z,26.87
2018-04-18T04:24:00.175Z,26.83
2018-04-18T04:26:26.438Z,26.33
2018-04-18T04:28:52.745Z,29.20
2018-04-18T04:31:19.058Z,26.73
2018-04-18T04:33:45.340Z,25.17
2018-04-18T04:36:11.678Z,26.77
2018-04-18T04:38:38.712Z,25.30
2018-04-18T04:41:04.987Z,24.40
2018-04-18T04:43:32.335Z,22.70
2018-04-18T04:45:58.669Z,23.53
2018-04-18T04:48:24.969Z,21.73
2018-04-18T04:50:52.077Z,23.23
2018-04-18T04:53:18.393Z,20.97
2018-04-18T04:55:44.679Z,21.37
2018-04-18T04:58:10.969Z,22.83
2018-04-18T05:00:37.278Z,25.17
2018-04-18T05:03:03.541Z,24.23
2018-04-18T05:05:29.932Z,24.00
2018-04-18T05:07:56.224Z,23.80
2018-04-18T05:10:22.495Z,23.07
2018-04-18T05:12:48.856Z,22.70
2018-04-18T05:15:15.163Z,23.23
2018-04-18T05:17:41.516Z,26.50
2018-04-18T05:20:07.819Z,21.70
2018-04-18T05:22:34.230Z,21.67
2018-04-18T05:25:01.264Z,20.60
2018-04-18T05:27:27.559Z,19.43
2018-04-18T05:29:53.923Z,20.60
2018-04-18T05:32:20.323Z,16.80
2018-04-18T05:34:46.602Z,16.20
2018-04-18T05:37:13.660Z,18.20
2018-04-18T05:39:40.690Z,15.50
2018-04-18T05:42:06.981Z,14.30
2018-04-18T05:44:33.308Z,16.20
2018-04-18T05:46:59.593Z,14.97
2018-04-18T05:49:26.654Z,15.27
2018-04-18T05:51:52.971Z,14.50
2018-04-18T05:54:20.009Z,15.50
2018-04-18T05:56:46.321Z,14.67
2018-04-18T05:59:12.629Z,15.40
2018-04-18T06:01:38.984Z,14.70
2018-04-18T06:04:05.282Z,16.80
2018-04-18T06:06:31.607Z,15.23
2018-04-18T06:08:58.661Z,16.43
2018-04-18T06:11:24.955Z,16.63
2018-04-18T06:13:51.996Z,15.97
2018-04-18T06:16:19.045Z,14.17
2018-04-18T06:18:46.067Z,13.60
2018-04-18T06:21:12.400Z,15.47
2018-04-18T06:23:38.704Z,13.93
2018-04-18T06:26:04.989Z,14.77
2018-04-18T06:28:32.007Z,13.43
2018-04-18T06:30:58.257Z,13.77
2018-04-18T06:33:25.311Z,14.10
2018-04-18T06:35:52.345Z,11.73
2018-04-18T06:38:25.628Z,12.47
2018-04-18T06:40:51.950Z,11.70
2018-04-18T06:43:18.243Z,12.10
2018-04-18T06:45:44.547Z,12.87
2018-04-18T06:48:11.629Z,11.33
2018-04-18T06:50:38.034Z,12.30
2018-04-18T06:53:05.150Z,12.00
2018-04-18T06:55:31.523Z,13.97
2018-04-18T06:57:57.846Z,12.20
2018-04-18T07:00:24.169Z,11.90
2018-04-18T07:02:51.288Z,11.60
2018-04-18T07:05:17.610Z,12.60
2018-04-18T07:07:43.988Z,10.20
2018-04-18T07:10:11.030Z,11.17
2018-04-18T07:12:38.077Z,10.30
2018-04-18T07:15:05.129Z,11.10
2018-04-18T07:17:32.132Z,10.93
2018-04-18T07:19:58.407Z,11.13
2018-04-18T07:22:25.477Z,10.40
2018-04-18T07:24:51.819Z,11.67
2018-04-18T07:27:18.107Z,10.80
2018-04-18T07:29:45.201Z,11.57
2018-04-18T07:32:11.519Z,11.17
2018-04-18T07:34:37.801Z,9.70
2018-04-18T07:37:04.130Z,10.73
2018-04-18T07:39:30.513Z,11.57
2018-04-18T07:41:57.720Z,11.80
2018-04-18T07:44:24.026Z,10.27
2018-04-18T07:46:50.387Z,11.43
2018-04-18T07:49:16.725Z,10.10
2018-04-18T07:51:43.816Z,10.03
2018-04-18T07:54:10.103Z,10.87
2018-04-18T07:56:36.671Z,9.40
2018-04-18T07:59:03.001Z,9.83
2018-04-18T08:01:29.233Z,11.00
2018-04-18T08:03:55.526Z,9.50
2018-04-18T08:06:21.920Z,9.27
2018-04-18T08:08:48.237Z,8.70
2018-04-18T08:11:14.640Z,11.00
2018-04-18T08:13:41.705Z,9.27
2018-04-18T08:16:07.998Z,9.67
2018-04-18T08:18:34.382Z,9.93
2018-04-18T08:21:00.766Z,8.17
2018-04-18T08:23:27.096Z,9.23
2018-04-18T08:25:55.686Z,9.30
2018-04-18T08:28:22.756Z,9.10
2018-04-18T08:30:49.088Z,10.23
2018-04-18T08:33:15.424Z,8.53
2018-04-18T08:35:41.749Z,8.53
2018-04-18T08:38:08.837Z,8.37
2018-04-18T08:40:35.195Z,9.53
2018-04-18T08:43:01.497Z,9.07
2018-04-18T08:45:27.826Z,9.87
2018-04-18T08:47:54.116Z,8.97
2018-04-18T08:50:21.173Z,8.70
2018-04-18T08:52:47.535Z,8.40
2018-04-18T08:55:13.835Z,9.53
2018-04-18T08:57:40.168Z,9.60
2018-04-18T09:00:06.509Z,8.00
2018-04-18T09:02:32.867Z,8.20
2018-04-18T09:04:59.227Z,9.10
2018-04-18T09:07:25.596Z,9.53
2018-04-18T09:09:51.902Z,8.97
2018-04-18T09:12:18.995Z,8.77
2018-04-18T09:14:45.340Z,9.70
2018-04-18T09:17:11.664Z,10.00
2018-04-18T09:19:37.995Z,11.63
2018-04-18T09:22:04.352Z,10.60
2018-04-18T09:24:30.625Z,11.97
2018-04-18T09:26:57.692Z,11.30
2018-04-18T09:29:24.055Z,9.33
2018-04-18T09:31:50.337Z,10.60
2018-04-18T09:34:16.657Z,10.47
2018-04-18T09:36:43.737Z,12.37
2018-04-18T09:39:10.075Z,10.40
2018-04-18T09:41:36.370Z,8.87
2018-04-18T09:44:03.411Z,7.90
2018-04-18T09:46:30.512Z,8.10
2018-04-18T09:48:56.834Z,8.53
2018-04-18T09:51:23.188Z,9.60
2018-04-18T09:53:49.546Z,8.10
2018-04-18T09:56:16.590Z,8.53
2018-04-18T09:58:43.009Z,8.93
2018-04-18T10:01:09.300Z,7.63
2018-04-18T10:03:45.651Z,9.47
2018-04-18T10:06:12.051Z,9.03
2018-04-18T10:08:39.121Z,10.40
2018-04-18T10:11:06.176Z,10.57
2018-04-18T10:13:32.517Z,11.00
2018-04-18T10:15:58.875Z,9.63
2018-04-18T10:18:25.159Z,7.90
2018-04-18T10:20:52.238Z,7.93
2018-04-18T10:23:18.783Z,8.67
2018-04-18T10:25:45.165Z,8.13
2018-04-18T10:28:11.455Z,8.13
2018-04-18T10:30:38.108Z,9.93
2018-04-18T10:33:04.438Z,9.00
2018-04-18T10:35:30.792Z,9.77
2018-04-18T10:37:57.128Z,9.20
2018-04-18T10:40:24.136Z,9.03
2018-04-18T10:42:50.444Z,9.20
2018-04-18T10:45:16.815Z,9.40
2018-04-18T10:47:43.959Z,9.40
2018-04-18T10:50:10.373Z,8.40
2018-04-18T10:52:36.745Z,8.17
2018-04-18T10:55:03.076Z,7.83
2018-04-18T10:57:29.386Z,9.27
2018-04-18T10:59:55.737Z,8.67
2018-04-18T11:02:22.049Z,11.87
2018-04-18T11:04:48.353Z,11.30
2018-04-18T11:07:14.666Z,12.17
2018-04-18T11:09:40.974Z,10.30
2018-04-18T11:12:07.365Z,11.23
2018-04-18T11:14:33.727Z,11.23
2018-04-18T11:17:00.026Z,10.00
2018-04-18T11:19:26.362Z,11.60
2018-04-18T11:21:53.383Z,10.53
2018-04-18T11:24:19.776Z,10.80
2018-04-18T11:26:46.054Z,10.50
2018-04-18T11:29:12.365Z,10.53
2018-04-18T11:31:38.694Z,12.30
2018-04-18T11:34:05.052Z,10.20
2018-04-18T11:36:31.379Z,12.20
2018-04-18T11:38:57.925Z,11.27
2018-04-18T11:41:24.220Z,10.93
2018-04-18T11:43:51.309Z,8.70
2018-04-18T11:46:17.633Z,11.57
2018-04-18T11:48:43.967Z,10.80
2018-04-18T11:51:10.336Z,10.27
2018-04-18T11:53:36.637Z,11.97
2018-04-18T11:56:02.942Z,11.47
2018-04-18T11:58:29.217Z,10.70
2018-04-18T12:00:55.632Z,9.67
2018-04-18T12:03:21.934Z,11.90
2018-04-18T12:05:48.221Z,10.60
2018-04-18T12:08:14.507Z,11.33
2018-04-18T12:10:40.753Z,11.50
2018-04-18T12:13:07.069Z,10.87
2018-04-18T12:15:33.389Z,9.47
2018-04-18T12:17:59.727Z,10.30
2018-04-18T12:20:26.035Z,10.00
2018-04-18T12:22:52.373Z,9.73
2018-04-18T12:25:18.665Z,10.80
2018-04-18T12:27:44.989Z,10.87
2018-04-18T12:30:11.278Z,9.50
2018-04-18T12:32:37.569Z,9.70
2018-04-18T12:35:03.831Z,6.90
2018-04-18T12:37:32.728Z,9.70
2018-04-18T12:39:59.124Z,11.20
2018-04-18T12:42:26.141Z,11.00
2018-04-18T12:44:52.485Z,10.60
2018-04-18T12:47:18.821Z,12.10
2018-04-18T12:49:45.098Z,13.50
2018-04-18T12:52:11.391Z,11.87
2018-04-18T12:54:37.647Z,14.70
2018-04-18T12:57:04.062Z,13.40
2018-04-18T12:59:31.115Z,10.53
2018-04-18T13:01:57.365Z,10.20
2018-04-18T13:04:23.637Z,10.23
2018-04-18T13:06:49.950Z,8.50
2018-04-18T13:09:16.264Z,8.20
2018-04-18T13:11:45.107Z,8.07
2018-04-18T13:14:11.399Z,7.40
2018-04-18T13:16:37.677Z,9.70
2018-04-18T13:19:04.731Z,11.03
2018-04-18T13:21:31.809Z,11.17
2018-04-18T13:23:58.130Z,11.50
2018-04-18T13:26:24.483Z,9.93
2018-04-18T13:28:50.830Z,9.80
2018-04-18T13:31:17.226Z,9.83
2018-04-18T13:33:43.590Z,7.90
2018-04-18T13:36:09.890Z,9.00
2018-04-18T13:38:36.190Z,8.87
2018-04-18T13:41:03.257Z,7.60
2018-04-18T13:43:30.295Z,7.87
2018-04-18T13:45:57.351Z,8.50
2018-04-18T13:48:23.740Z,6.80
2018-04-18T13:50:50.019Z,8.50
2018-04-18T13:53:16.394Z,7.87
2018-04-18T13:55:42.690Z,8.20
2018-04-18T13:58:09.021Z,8.17
2018-04-18T14:00:35.343Z,9.37
2018-04-18T14:03:01.706Z,8.20
2018-04-18T14:05:28.031Z,6.83
2018-04-18T14:07:54.372Z,7.27
2018-04-18T14:10:20.682Z,6.90
2018-04-18T14:12:46.974Z,7.20
2018-04-18T14:15:14.037Z,8.50
2018-04-18T14:17:40.334Z,9.33
2018-04-18T14:20:06.658Z,9.80
2018-04-18T14:22:33.689Z,10.00
2018-04-18T14:25:00.033Z,7.53
2018-04-18T14:27:26.340Z,7.93
2018-04-18T14:29:52.673Z,9.50
2018-04-18T14:32:19.110Z,8.57
2018-04-18T14:34:45.447Z,8.67
2018-04-18T14:37:11.709Z,8.80
2018-04-18T14:39:38.039Z,8.10
2018-04-18T14:42:04.358Z,8.77
2018-04-18T14:44:30.668Z,7.07
2018-04-18T14:46:57.019Z,9.37
2018-04-18T14:49:23.382Z,8.30
2018-04-18T14:51:50.452Z,8.10
2018-04-18T14:54:16.904Z,9.27
2018-04-18T14:56:43.240Z,7.90
2018-04-18T14:59:09.564Z,6.80
2018-04-18T15:01:35.887Z,7.43
2018-04-18T15:04:02.182Z,7.73
2018-04-18T15:06:28.484Z,7.40
2018-04-18T15:08:54.763Z,6.67
2018-04-18T15:11:21.837Z,7.30
2018-04-18T15:13:48.164Z,7.40
2018-04-18T15:16:14.460Z,6.90
2018-04-18T15:18:41.713Z,10.27
2018-04-18T15:21:08.794Z,7.37
2018-04-18T15:23:35.168Z,6.90
2018-04-18T15:26:01.496Z,7.23
2018-04-18T15:28:27.907Z,6.33
2018-04-18T15:30:54.300Z,7.90
2018-04-18T15:33:21.676Z,7.50
2018-04-18T15:35:48.043Z,6.57
2018-04-18T15:38:14.388Z,7.00
2018-04-18T15:40:40.724Z,6.63
2018-04-18T15:43:07.821Z,7.00
2018-04-18T15:45:34.154Z,6.03
2018-04-18T15:48:00.493Z,6.70
2018-04-18T15:50:26.845Z,7.23
2018-04-18T15:52:53.177Z,7.10
2018-04-18T15:55:19.506Z,7.33
2018-04-18T15:57:45.850Z,7.13
2018-04-18T16:00:12.142Z,7.93
2018-04-18T16:02:38.478Z,7.70
2018-04-18T16:05:04.798Z,8.47
2018-04-18T16:07:31.902Z,6.47
2018-04-18T16:09:58.209Z,7.97
2018-04-18T16:12:25.354Z,7.73
2018-04-18T16:14:52.506Z,7.63
2018-04-18T16:17:18.850Z,7.93
2018-04-18T16:19:45.280Z,8.00
2018-04-18T16:22:11.631Z,9.60
2018-04-18T16:24:38.177Z,7.73
2018-04-18T16:27:05.277Z,8.10
2018-04-18T16:29:42.746Z,9.40
2018-04-18T16:32:09.118Z,8.93
2018-04-18T16:34:35.684Z,7.87
2018-04-18T16:37:02.025Z,9.27
2018-04-18T16:39:29.091Z,9.57
2018-04-18T16:41:56.146Z,8.20
2018-04-18T16:44:22.650Z,9.07
2018-04-18T16:46:48.984Z,7.97
2018-04-18T16:49:15.288Z,9.30
2018-04-18T16:51:41.564Z,8.70
2018-04-18T16:54:08.665Z,8.17
2018-04-18T16:56:35.018Z,9.80
2018-04-18T16:59:01.296Z,9.20
2018-04-18T17:01:27.594Z,7.90
2018-04-18T17:03:54.650Z,7.90
2018-04-18T17:06:21.766Z,8.10
2018-04-18T17:08:48.245Z,8.60
2018-04-18T17:11:14.723Z,7.70
2018-04-18T17:13:41.159Z,8.47
2018-04-18T17:16:07.830Z,8.27
2018-04-18T17:18:34.154Z,8.10
2018-04-18T17:21:00.549Z,7.83
2018-04-18T17:23:26.905Z,9.30
2018-04-18T17:25:53.238Z,9.03
2018-04-18T17:28:19.579Z,10.43
2018-04-18T17:30:46.690Z,9.73
2018-04-18T17:33:13.131Z,8.73
2018-04-18T17:35:40.270Z,8.73
2018-04-18T17:38:06.565Z,9.53
2018-04-18T17:40:33.661Z,10.13
2018-04-18T17:43:00.014Z,9.63
2018-04-18T17:45:26.549Z,9.40
2018-04-18T17:47:53.012Z,10.50
2018-04-18T17:50:20.063Z,9.23
2018-04-18T17:52:47.181Z,10.97
2018-04-18T17:55:13.518Z,12.67
2018-04-18T17:57:42.206Z,16.07
2018-04-18T18:00:08.590Z,14.00
2018-04-18T18:02:34.936Z,8.70
2018-04-18T18:05:02.074Z,7.80
2018-04-18T18:07:28.395Z,9.37
2018-04-18T18:09:54.725Z,7.80
2018-04-18T18:12:21.113Z,8.93
2018-04-18T18:14:47.389Z,9.30
2018-04-18T18:17:13.724Z,8.80
2018-04-18T18:19:39.996Z,8.80
2018-04-18T18:22:06.322Z,9.13
2018-04-18T18:24:32.623Z,8.83
2018-04-18T18:26:58.925Z,8.40
2018-04-18T18:29:25.968Z,10.03
2018-04-18T18:31:53.076Z,9.30
2018-04-18T18:34:19.362Z,9.30
2018-04-18T18:36:45.729Z,10.73
2018-04-18T18:39:12.061Z,9.60
2018-04-18T18:41:38.360Z,10.27
2018-04-18T18:44:04.660Z,10.03
2018-04-18T18:46:30.978Z,10.10
2018-04-18T18:48:57.318Z,10.53
2018-04-18T18:51:24.373Z,9.63
2018-04-18T18:53:51.506Z,9.73
2018-04-18T18:56:18.204Z,11.40
2018-04-18T18:58:44.590Z,12.30
2018-04-18T19:01:11.754Z,11.93
2018-04-18T19:03:39.152Z,12.23
2018-04-18T19:06:05.692Z,14.73
2018-04-18T19:08:32.082Z,11.97
2018-04-18T19:10:59.497Z,13.00
2018-04-18T19:13:26.685Z,13.60
2018-04-18T19:15:53.777Z,14.17
2018-04-18T19:18:20.119Z,13.73
2018-04-18T19:20:46.427Z,14.77
2018-04-18T19:23:12.724Z,15.70
2018-04-18T19:25:39.764Z,13.70
2018-04-18T19:28:06.164Z,12.67
2018-04-18T19:30:32.418Z,13.97
2018-04-18T19:32:58.716Z,14.67
2018-04-18T19:35:25.039Z,12.60
2018-04-18T19:37:51.403Z,13.60
2018-04-18T19:40:17.689Z,13.13
2018-04-18T19:42:51.303Z,16.03
2018-04-18T19:45:17.629Z,16.00
2018-04-18T19:47:43.998Z,16.40
2018-04-18T19:50:10.306Z,14.77
2018-04-18T19:52:36.598Z,13.87
2018-04-18T19:55:02.952Z,14.00
2018-04-18T19:57:29.248Z,17.77
2018-04-18T19:59:56.282Z,21.40
2018-04-18T20:02:23.391Z,22.20
2018-04-18T20:04:49.728Z,33.17
2018-04-18T20:07:16.029Z,31.33
2018-04-18T20:09:42.774Z,34.83
2018-04-18T20:12:09.123Z,35.53
2018-04-18T20:14:35.415Z,33.40
2018-04-18T20:17:02.436Z,31.83
2018-04-18T20:19:28.695Z,26.20
2018-04-18T20:21:55.726Z,25.20
2018-04-18T20:24:21.997Z,23.70
2018-04-18T20:26:48.260Z,19.57
2018-04-18T20:29:14.544Z,18.63
2018-04-18T20:31:41.568Z,17.40
2018-04-18T20:34:08.626Z,16.27
2018-04-18T20:36:40.797Z,17.47
2018-04-18T20:39:07.950Z,16.07
2018-04-18T20:41:34.989Z,18.63
2018-04-18T20:44:02.012Z,16.70
2018-04-18T20:46:28.291Z,17.80
2018-04-18T20:48:54.587Z,15.60
2018-04-18T20:51:20.868Z,17.00
2018-04-18T20:53:47.194Z,16.03
2018-04-18T20:56:13.490Z,16.10
2018-04-18T20:58:40.568Z,15.93
2018-04-18T21:01:06.875Z,16.57
2018-04-18T21:03:34.785Z,16.93
2018-04-18T21:06:01.055Z,16.13
2018-04-18T21:08:28.108Z,16.77
2018-04-18T21:10:55.150Z,16.13
2018-04-18T21:13:21.466Z,16.37
2018-04-18T21:15:47.759Z,15.70
2018-04-18T21:18:14.084Z,15.83
2018-04-18T21:20:40.367Z,17.70
2018-04-18T21:23:06.736Z,15.07
2018-04-18T21:25:33.003Z,15.90
2018-04-18T21:27:59.257Z,16.20
2018-04-18T21:30:27.039Z,16.87
2018-04-18T21:32:54.058Z,15.17
2018-04-18T21:35:20.344Z,15.93
2018-04-18T21:37:46.610Z,15.60
2018-04-18T21:40:13.320Z,15.20
2018-04-18T21:42:39.601Z,15.40
2018-04-18T21:45:05.880Z,14.03
2018-04-18T21:47:32.126Z,14.17
2018-04-18T21:49:58.537Z,15.60
2018-04-18T21:52:24.837Z,15.53
2018-04-18T21:54:51.864Z,15.30
2018-04-18T21:57:18.160Z,15.10
2018-04-18T21:59:44.469Z,14.77
2018-04-18T22:02:10.759Z,16.73
2018-04-18T22:04:37.047Z,15.80
2018-04-18T22:07:03.323Z,17.90
2018-04-18T22:09:29.645Z,16.90
2018-04-18T22:11:55.922Z,17.30
2018-04-18T22:14:22.201Z,15.60
2018-04-18T22:16:48.521Z,17.30
2018-04-18T22:19:14.777Z,16.13
2018-04-18T22:21:41.138Z,15.33
2018-04-18T22:24:08.179Z,15.40
2018-04-18T22:26:35.207Z,15.83
2018-04-18T22:29:01.467Z,17.50
2018-04-18T22:31:27.751Z,17.67
2018-04-18T22:33:54.021Z,20.77
2018-04-18T22:36:20.315Z,21.10
2018-04-18T22:38:46.582Z,19.37
2018-04-18T22:41:13.113Z,20.33
2018-04-18T22:43:40.147Z,21.10
2018-04-18T22:46:07.177Z,18.80
2018-04-18T22:48:34.967Z,20.20
2018-04-18T22:51:01.981Z,17.87
2018-04-18T22:53:28.243Z,17.70
2018-04-18T22:55:56.221Z,21.50
2018-04-18T22:58:22.515Z,19.80
2018-04-18T23:00:49.631Z,18.67
2018-04-18T23:03:15.950Z,19.30
2018-04-18T23:05:42.263Z,19.10
2018-04-18T23:08:08.576Z,18.77
2018-04-18T23:10:34.890Z,19.07
2018-04-18T23:13:01.192Z,18.27
2018-04-18T23:15:27.487Z,19.50
2018-04-18T23:17:55.361Z,17.23
2018-04-18T23:20:21.717Z,20.73
2018-04-18T23:22:47.911Z,18.23
2018-04-18T23:25:14.200Z,18.60
2018-04-18T23:27:40.486Z,17.63
2018-04-18T23:30:06.732Z,17.47
2018-04-18T23:32:33.025Z,18.30
2018-04-18T23:35:00.064Z,17.70
2018-04-18T23:37:26.365Z,19.27
2018-04-18T23:39:52.652Z,19.77
2018-04-18T23:42:19.224Z,22.83
2018-04-18T23:44:45.574Z,21.03
2018-04-18T23:47:12.851Z,19.23
2018-04-18T23:49:39.175Z,17.30
2018-04-18T23:52:06.223Z,17.43
2018-04-18T23:54:33.290Z,18.57
2018-04-18T23:57:00.323Z,17.17
2018-04-18T23:59:27.363Z,17.70
